オスロ の空港の天気 - METARとTAF

オスロ空港 ( ENGM / OSL ) - ノルウェー アーケシュフース県オスロ
飛行場実況気象(Metar)
観測時間07/29 03:50 CEST (07/29 01:50 UTC)
風向・風速不定 1m/s
視程7000m
天気現象弱い雨
全天の4割程度の雲 雲底高度 340m
全天の8割程度の雲 雲底高度 430m
気温15℃
湿度100%
気圧1002hPa
METARENGM 290150Z VRB01KT 7000 -RA SCT011 BKN014 15/15 Q1002
過去の天気等 Google飛行場航空写真 Wunderground天気予報

過去48時間のMETAR

飛行場予報(TAF)
発表時間: -
29日2時 CEST ~ 29日10時 CEST に 確率 40% で一時的に
視程2000m
天気現象しゅう雨 もや
全天の8割程度の雲 雲底高度 240m
全天の4割程度の積乱雲 雲底高度 460m
29日10時 CEST ~ 29日17時 CEST に一時的に
風向・風速北東 6m/s
視程2500m
天気現象雷雨
全天の8割程度の雲 雲底高度 240m
全天の4割程度の積乱雲 雲底高度 460m
29日17時 CEST ~ 29日24時 CEST に一時的に
天気現象しゅう雨
全天の4割程度の積乱雲 雲底高度 610m
全天の8割程度の雲 雲底高度 1070m
30日0時 CEST から 確率 40% で
視程4000m
天気現象もや
全天の8割程度の雲 雲底高度 120m
TAF ENGM 2900/2924 15005KT 9999 SCT015 BKN040
PROB40 TEMPO 2900/2908 2000 SHRA BR BKN008 SCT015CB
TEMPO 2908/2915 04012KT 2500 TSRA BKN008 SCT015CB
TEMPO 2915/2922 SHRA SCT020CB BKN035
PROB40 2922/2924 4000 BR BKN004